sensor_id;sensor_type;location;lat;lon;timestamp;P1;durP1;ratioP1;P2;durP2;ratioP2
69034;SDS011;56091;55.756;37.412;2022-08-04T00:01:27;16.92;;;7.93;;
69034;SDS011;56091;55.756;37.412;2022-08-04T00:06:36;17.00;;;7.70;;
69034;SDS011;56091;55.756;37.412;2022-08-04T00:11:59;20.58;;;7.70;;
69034;SDS011;56091;55.756;37.412;2022-08-04T00:17:10;17.33;;;7.40;;
69034;SDS011;56091;55.756;37.412;2022-08-04T00:22:12;30.88;;;8.20;;
69034;SDS011;56091;55.756;37.412;2022-08-04T00:27:17;16.47;;;7.43;;
69034;SDS011;56091;55.756;37.412;2022-08-04T00:32:18;18.00;;;7.20;;
69034;SDS011;56091;55.756;37.412;2022-08-04T00:37:20;15.00;;;7.20;;
69034;SDS011;56091;55.756;37.412;2022-08-04T00:57:54;18.30;;;7.40;;
69034;SDS011;56091;55.756;37.412;2022-08-04T01:03:23;15.82;;;7.38;;
69034;SDS011;56091;55.756;37.412;2022-08-04T01:09:05;16.23;;;7.40;;
69034;SDS011;56091;55.756;37.412;2022-08-04T01:24:47;17.83;;;7.20;;
69034;SDS011;56091;55.756;37.412;2022-08-04T01:29:59;12.93;;;7.43;;
69034;SDS011;56091;55.756;37.412;2022-08-04T01:35:04;17.40;;;7.53;;
69034;SDS011;56091;55.756;37.412;2022-08-04T01:40:16;16.57;;;7.00;;
69034;SDS011;56091;55.756;37.412;2022-08-04T01:45:18;24.33;;;7.88;;
69034;SDS011;56091;55.756;37.412;2022-08-04T01:50:19;20.53;;;8.20;;
69034;SDS011;56091;55.756;37.412;2022-08-04T01:55:22;20.23;;;8.52;;
69034;SDS011;56091;55.756;37.412;2022-08-04T02:00:26;18.93;;;8.03;;
69034;SDS011;56091;55.756;37.412;2022-08-04T02:05:28;19.10;;;8.30;;
69034;SDS011;56091;55.756;37.412;2022-08-04T02:20:58;19.97;;;8.43;;
69034;SDS011;56091;55.756;37.412;2022-08-04T02:26:02;20.48;;;8.82;;
69034;SDS011;56091;55.756;37.412;2022-08-04T02:36:16;16.60;;;8.48;;
69034;SDS011;56091;55.756;37.412;2022-08-04T02:41:24;18.10;;;9.50;;
69034;SDS011;56091;55.756;37.412;2022-08-04T02:46:26;21.38;;;9.45;;
69034;SDS011;56091;55.756;37.412;2022-08-04T02:51:50;20.90;;;9.20;;
69034;SDS011;56091;55.756;37.412;2022-08-04T02:56:51;21.45;;;9.20;;
69034;SDS011;56091;55.756;37.412;2022-08-04T03:01:56;20.10;;;9.60;;
69034;SDS011;56091;55.756;37.412;2022-08-04T04:28:26;19.00;;;9.43;;
69034;SDS011;56091;55.756;37.412;2022-08-04T04:49:47;18.63;;;9.77;;
69034;SDS011;56091;55.756;37.412;2022-08-04T04:55:38;20.02;;;9.85;;
69034;SDS011;56091;55.756;37.412;2022-08-04T05:00:25;20.43;;;10.30;;
69034;SDS011;56091;55.756;37.412;2022-08-04T05:16:58;22.85;;;10.00;;
69034;SDS011;56091;55.756;37.412;2022-08-04T05:22:38;22.00;;;9.87;;
69034;SDS011;56091;55.756;37.412;2022-08-04T05:27:36;20.17;;;9.15;;
69034;SDS011;56091;55.756;37.412;2022-08-04T05:32:54;19.57;;;9.30;;
69034;SDS011;56091;55.756;37.412;2022-08-04T05:38:01;18.95;;;8.27;;
69034;SDS011;56091;55.756;37.412;2022-08-04T05:43:03;15.73;;;7.87;;
69034;SDS011;56091;55.756;37.412;2022-08-04T05:48:07;15.95;;;7.85;;
69034;SDS011;56091;55.756;37.412;2022-08-04T05:53:09;18.13;;;8.07;;
69034;SDS011;56091;55.756;37.412;2022-08-04T05:58:13;12.60;;;7.43;;
69034;SDS011;56091;55.756;37.412;2022-08-04T06:03:16;15.13;;;7.10;;
69034;SDS011;56091;55.756;37.412;2022-08-04T06:08:18;14.57;;;6.53;;
69034;SDS011;56091;55.756;37.412;2022-08-04T06:13:28;12.47;;;5.93;;
69034;SDS011;56091;55.756;37.412;2022-08-04T06:18:30;11.23;;;5.35;;
69034;SDS011;56091;55.756;37.412;2022-08-04T06:23:32;11.63;;;4.50;;
69034;SDS011;56091;55.756;37.412;2022-08-04T06:28:37;9.35;;;4.78;;
69034;SDS011;56091;55.756;37.412;2022-08-04T06:33:41;9.73;;;4.77;;
69034;SDS011;56091;55.756;37.412;2022-08-04T06:38:42;9.95;;;4.20;;
69034;SDS011;56091;55.756;37.412;2022-08-04T06:43:43;11.33;;;4.50;;
69034;SDS011;56091;55.756;37.412;2022-08-04T06:48:46;9.77;;;4.53;;
69034;SDS011;56091;55.756;37.412;2022-08-04T06:53:50;8.03;;;4.20;;
69034;SDS011;56091;55.756;37.412;2022-08-04T06:58:51;10.13;;;4.25;;
69034;SDS011;56091;55.756;37.412;2022-08-04T07:03:54;8.97;;;3.90;;
69034;SDS011;56091;55.756;37.412;2022-08-04T07:08:55;8.98;;;3.88;;
69034;SDS011;56091;55.756;37.412;2022-08-04T07:13:59;9.73;;;3.80;;
69034;SDS011;56091;55.756;37.412;2022-08-04T07:19:00;8.32;;;3.80;;
69034;SDS011;56091;55.756;37.412;2022-08-04T07:24:01;15.37;;;4.23;;
69034;SDS011;56091;55.756;37.412;2022-08-04T07:29:02;10.60;;;4.25;;
69034;SDS011;56091;55.756;37.412;2022-08-04T07:34:03;10.40;;;4.30;;
69034;SDS011;56091;55.756;37.412;2022-08-04T07:39:04;11.05;;;4.32;;
69034;SDS011;56091;55.756;37.412;2022-08-04T07:44:05;10.77;;;4.30;;
69034;SDS011;56091;55.756;37.412;2022-08-04T07:49:06;7.35;;;4.32;;
69034;SDS011;56091;55.756;37.412;2022-08-04T07:54:08;11.60;;;4.20;;
69034;SDS011;56091;55.756;37.412;2022-08-04T07:59:16;11.85;;;4.50;;
69034;SDS011;56091;55.756;37.412;2022-08-04T08:04:18;9.23;;;4.27;;
69034;SDS011;56091;55.756;37.412;2022-08-04T08:09:19;8.57;;;4.18;;
69034;SDS011;56091;55.756;37.412;2022-08-04T08:14:20;10.53;;;4.60;;
69034;SDS011;56091;55.756;37.412;2022-08-04T08:19:22;8.00;;;4.22;;
69034;SDS011;56091;55.756;37.412;2022-08-04T08:24:22;17.67;;;5.10;;
69034;SDS011;56091;55.756;37.412;2022-08-04T08:29:24;269.50;;;23.05;;
69034;SDS011;56091;55.756;37.412;2022-08-04T08:39:35;20.20;;;5.13;;
69034;SDS011;56091;55.756;37.412;2022-08-04T09:01:39;14.82;;;5.13;;
69034;SDS011;56091;55.756;37.412;2022-08-04T09:12:29;19.95;;;4.93;;
69034;SDS011;56091;55.756;37.412;2022-08-04T09:33:43;48.40;;;8.07;;
69034;SDS011;56091;55.756;37.412;2022-08-04T09:39:09;23.47;;;6.27;;
69034;SDS011;56091;55.756;37.412;2022-08-04T09:44:24;9.63;;;5.07;;
69034;SDS011;56091;55.756;37.412;2022-08-04T09:49:46;9.53;;;5.60;;
69034;SDS011;56091;55.756;37.412;2022-08-04T09:54:54;12.30;;;6.20;;
69034;SDS011;56091;55.756;37.412;2022-08-04T10:00:08;11.43;;;5.67;;
69034;SDS011;56091;55.756;37.412;2022-08-04T10:05:14;14.35;;;5.70;;
69034;SDS011;56091;55.756;37.412;2022-08-04T10:10:26;9.40;;;5.53;;
69034;SDS011;56091;55.756;37.412;2022-08-04T10:21:02;10.63;;;5.20;;
69034;SDS011;56091;55.756;37.412;2022-08-04T10:26:14;9.55;;;4.90;;
69034;SDS011;56091;55.756;37.412;2022-08-04T10:31:34;10.90;;;5.50;;
69034;SDS011;56091;55.756;37.412;2022-08-04T10:36:40;11.93;;;5.90;;
69034;SDS011;56091;55.756;37.412;2022-08-04T10:41:51;11.83;;;6.40;;
69034;SDS011;56091;55.756;37.412;2022-08-04T10:47:00;12.15;;;5.95;;
69034;SDS011;56091;55.756;37.412;2022-08-04T10:52:09;11.07;;;6.17;;
69034;SDS011;56091;55.756;37.412;2022-08-04T10:57:32;14.07;;;6.20;;
69034;SDS011;56091;55.756;37.412;2022-08-04T11:02:50;11.87;;;6.20;;
69034;SDS011;56091;55.756;37.412;2022-08-04T11:08:02;12.98;;;6.40;;
69034;SDS011;56091;55.756;37.412;2022-08-04T11:13:05;14.17;;;6.50;;
69034;SDS011;56091;55.756;37.412;2022-08-04T11:18:18;11.02;;;6.85;;
69034;SDS011;56091;55.756;37.412;2022-08-04T11:23:41;11.87;;;6.60;;
69034;SDS011;56091;55.756;37.412;2022-08-04T11:34:32;11.03;;;6.80;;
69034;SDS011;56091;55.756;37.412;2022-08-04T11:39:36;12.50;;;6.75;;
69034;SDS011;56091;55.756;37.412;2022-08-04T11:45:05;13.13;;;7.40;;
69034;SDS011;56091;55.756;37.412;2022-08-04T11:50:32;11.20;;;7.07;;
69034;SDS011;56091;55.756;37.412;2022-08-04T11:55:40;15.23;;;7.73;;
69034;SDS011;56091;55.756;37.412;2022-08-04T12:00:55;13.25;;;7.03;;
69034;SDS011;56091;55.756;37.412;2022-08-04T12:06:08;13.47;;;7.70;;
69034;SDS011;56091;55.756;37.412;2022-08-04T12:21:54;19.58;;;8.20;;
69034;SDS011;56091;55.756;37.412;2022-08-04T12:27:02;15.83;;;7.10;;
69034;SDS011;56091;55.756;37.412;2022-08-04T12:32:21;15.70;;;7.10;;
69034;SDS011;56091;55.756;37.412;2022-08-04T12:43:33;15.40;;;7.47;;
69034;SDS011;56091;55.756;37.412;2022-08-04T12:48:43;20.90;;;8.23;;
69034;SDS011;56091;55.756;37.412;2022-08-04T12:53:46;16.60;;;7.80;;
69034;SDS011;56091;55.756;37.412;2022-08-04T12:58:47;16.77;;;8.45;;
69034;SDS011;56091;55.756;37.412;2022-08-04T13:03:52;15.50;;;8.50;;
69034;SDS011;56091;55.756;37.412;2022-08-04T13:09:01;16.20;;;7.85;;
69034;SDS011;56091;55.756;37.412;2022-08-04T13:14:15;17.10;;;8.97;;
69034;SDS011;56091;55.756;37.412;2022-08-04T13:19:17;15.00;;;8.57;;
69034;SDS011;56091;55.756;37.412;2022-08-04T13:24:18;13.77;;;8.40;;
69034;SDS011;56091;55.756;37.412;2022-08-04T13:29:30;14.50;;;8.40;;
69034;SDS011;56091;55.756;37.412;2022-08-04T13:34:36;17.70;;;9.23;;
69034;SDS011;56091;55.756;37.412;2022-08-04T13:39:45;16.63;;;8.80;;
69034;SDS011;56091;55.756;37.412;2022-08-04T13:44:51;18.48;;;11.25;;
69034;SDS011;56091;55.756;37.412;2022-08-04T13:55:24;14.88;;;10.35;;
69034;SDS011;56091;55.756;37.412;2022-08-04T14:00:44;21.23;;;10.93;;
69034;SDS011;56091;55.756;37.412;2022-08-04T14:06:03;22.60;;;10.20;;
69034;SDS011;56091;55.756;37.412;2022-08-04T14:11:32;17.30;;;10.45;;
69034;SDS011;56091;55.756;37.412;2022-08-04T14:16:34;14.10;;;10.40;;
69034;SDS011;56091;55.756;37.412;2022-08-04T14:21:36;15.52;;;9.30;;
69034;SDS011;56091;55.756;37.412;2022-08-04T14:26:37;16.40;;;10.17;;
69034;SDS011;56091;55.756;37.412;2022-08-04T14:31:38;17.30;;;9.93;;
69034;SDS011;56091;55.756;37.412;2022-08-04T14:36:39;14.80;;;8.30;;
69034;SDS011;56091;55.756;37.412;2022-08-04T14:41:45;13.90;;;9.40;;
69034;SDS011;56091;55.756;37.412;2022-08-04T14:46:52;18.70;;;8.40;;
69034;SDS011;56091;55.756;37.412;2022-08-04T14:51:56;16.13;;;8.83;;
69034;SDS011;56091;55.756;37.412;2022-08-04T14:57:03;14.98;;;8.80;;
69034;SDS011;56091;55.756;37.412;2022-08-04T15:02:05;15.83;;;8.47;;
69034;SDS011;56091;55.756;37.412;2022-08-04T15:07:08;15.70;;;8.60;;
69034;SDS011;56091;55.756;37.412;2022-08-04T15:12:09;17.80;;;8.98;;
69034;SDS011;56091;55.756;37.412;2022-08-04T15:17:10;15.33;;;8.23;;
69034;SDS011;56091;55.756;37.412;2022-08-04T15:22:12;14.82;;;9.18;;
69034;SDS011;56091;55.756;37.412;2022-08-04T15:27:13;17.20;;;8.60;;
69034;SDS011;56091;55.756;37.412;2022-08-04T15:32:15;13.95;;;8.75;;
69034;SDS011;56091;55.756;37.412;2022-08-04T15:37:27;13.40;;;8.87;;
69034;SDS011;56091;55.756;37.412;2022-08-04T15:42:48;16.85;;;8.93;;
69034;SDS011;56091;55.756;37.412;2022-08-04T15:53:19;20.73;;;10.90;;
69034;SDS011;56091;55.756;37.412;2022-08-04T15:58:20;16.57;;;9.87;;
69034;SDS011;56091;55.756;37.412;2022-08-04T16:19:06;17.50;;;10.77;;
69034;SDS011;56091;55.756;37.412;2022-08-04T16:34:22;15.20;;;10.15;;
69034;SDS011;56091;55.756;37.412;2022-08-04T16:39:27;21.47;;;10.63;;
69034;SDS011;56091;55.756;37.412;2022-08-04T16:44:35;18.38;;;10.98;;
69034;SDS011;56091;55.756;37.412;2022-08-04T16:49:38;19.30;;;10.70;;
69034;SDS011;56091;55.756;37.412;2022-08-04T16:54:42;18.88;;;10.40;;
69034;SDS011;56091;55.756;37.412;2022-08-04T16:59:49;18.27;;;10.67;;
69034;SDS011;56091;55.756;37.412;2022-08-04T17:04:50;17.83;;;10.25;;
69034;SDS011;56091;55.756;37.412;2022-08-04T17:09:51;17.27;;;10.33;;
69034;SDS011;56091;55.756;37.412;2022-08-04T17:14:54;19.13;;;11.13;;
69034;SDS011;56091;55.756;37.412;2022-08-04T17:19:57;21.53;;;11.20;;
69034;SDS011;56091;55.756;37.412;2022-08-04T17:24:58;17.25;;;10.82;;
69034;SDS011;56091;55.756;37.412;2022-08-04T17:30:04;20.40;;;10.53;;
69034;SDS011;56091;55.756;37.412;2022-08-04T17:35:26;18.73;;;10.52;;
69034;SDS011;56091;55.756;37.412;2022-08-04T17:40:28;18.23;;;10.53;;
69034;SDS011;56091;55.756;37.412;2022-08-04T17:45:29;21.77;;;11.25;;
69034;SDS011;56091;55.756;37.412;2022-08-04T17:50:30;19.77;;;11.93;;
69034;SDS011;56091;55.756;37.412;2022-08-04T17:55:41;31.00;;;13.15;;
69034;SDS011;56091;55.756;37.412;2022-08-04T18:00:47;19.10;;;12.07;;
69034;SDS011;56091;55.756;37.412;2022-08-04T18:05:57;22.15;;;12.02;;
69034;SDS011;56091;55.756;37.412;2022-08-04T18:11:17;21.30;;;11.97;;
69034;SDS011;56091;55.756;37.412;2022-08-04T18:16:18;20.92;;;12.43;;
69034;SDS011;56091;55.756;37.412;2022-08-04T18:21:19;22.57;;;12.60;;
69034;SDS011;56091;55.756;37.412;2022-08-04T18:26:22;22.08;;;11.75;;
69034;SDS011;56091;55.756;37.412;2022-08-04T18:31:23;24.40;;;13.30;;
69034;SDS011;56091;55.756;37.412;2022-08-04T18:36:25;21.20;;;12.48;;
69034;SDS011;56091;55.756;37.412;2022-08-04T18:41:28;24.57;;;12.73;;
69034;SDS011;56091;55.756;37.412;2022-08-04T18:46:30;21.40;;;12.45;;
69034;SDS011;56091;55.756;37.412;2022-08-04T18:51:30;21.40;;;12.63;;
69034;SDS011;56091;55.756;37.412;2022-08-04T18:56:33;25.02;;;13.23;;
69034;SDS011;56091;55.756;37.412;2022-08-04T19:01:35;28.23;;;12.40;;
69034;SDS011;56091;55.756;37.412;2022-08-04T19:06:40;27.08;;;12.73;;
69034;SDS011;56091;55.756;37.412;2022-08-04T19:11:45;24.37;;;13.10;;
69034;SDS011;56091;55.756;37.412;2022-08-04T19:16:49;21.13;;;12.52;;
69034;SDS011;56091;55.756;37.412;2022-08-04T19:21:50;18.67;;;12.63;;
69034;SDS011;56091;55.756;37.412;2022-08-04T19:26:53;25.25;;;13.68;;
69034;SDS011;56091;55.756;37.412;2022-08-04T19:31:54;25.33;;;14.27;;
69034;SDS011;56091;55.756;37.412;2022-08-04T19:36:55;25.08;;;14.00;;
69034;SDS011;56091;55.756;37.412;2022-08-04T19:41:56;24.97;;;12.50;;
69034;SDS011;56091;55.756;37.412;2022-08-04T19:46:57;23.48;;;13.25;;
69034;SDS011;56091;55.756;37.412;2022-08-04T19:52:01;23.93;;;13.67;;
69034;SDS011;56091;55.756;37.412;2022-08-04T19:57:05;19.38;;;12.02;;
69034;SDS011;56091;55.756;37.412;2022-08-04T20:02:06;19.87;;;11.80;;
69034;SDS011;56091;55.756;37.412;2022-08-04T20:07:07;22.55;;;13.15;;
69034;SDS011;56091;55.756;37.412;2022-08-04T20:12:08;29.03;;;13.57;;
69034;SDS011;56091;55.756;37.412;2022-08-04T20:17:09;20.25;;;13.00;;
69034;SDS011;56091;55.756;37.412;2022-08-04T20:22:10;22.53;;;12.00;;
69034;SDS011;56091;55.756;37.412;2022-08-04T20:27:12;20.58;;;12.60;;
69034;SDS011;56091;55.756;37.412;2022-08-04T20:32:14;23.47;;;12.63;;
69034;SDS011;56091;55.756;37.412;2022-08-04T20:37:16;20.40;;;12.55;;
69034;SDS011;56091;55.756;37.412;2022-08-04T20:42:17;26.33;;;13.07;;
69034;SDS011;56091;55.756;37.412;2022-08-04T20:47:18;22.13;;;12.83;;
69034;SDS011;56091;55.756;37.412;2022-08-04T20:52:19;21.43;;;12.70;;
69034;SDS011;56091;55.756;37.412;2022-08-04T20:57:23;21.80;;;13.33;;
69034;SDS011;56091;55.756;37.412;2022-08-04T21:02:24;26.58;;;13.25;;
69034;SDS011;56091;55.756;37.412;2022-08-04T21:07:26;24.83;;;13.13;;
69034;SDS011;56091;55.756;37.412;2022-08-04T21:12:26;23.52;;;12.68;;
69034;SDS011;56091;55.756;37.412;2022-08-04T21:17:27;25.00;;;13.40;;
69034;SDS011;56091;55.756;37.412;2022-08-04T21:22:28;25.00;;;12.65;;
69034;SDS011;56091;55.756;37.412;2022-08-04T21:27:36;24.10;;;12.97;;
69034;SDS011;56091;55.756;37.412;2022-08-04T21:32:37;20.25;;;12.77;;
69034;SDS011;56091;55.756;37.412;2022-08-04T21:37:37;30.47;;;14.40;;
69034;SDS011;56091;55.756;37.412;2022-08-04T21:42:38;34.63;;;13.85;;
69034;SDS011;56091;55.756;37.412;2022-08-04T21:47:39;26.83;;;14.10;;
69034;SDS011;56091;55.756;37.412;2022-08-04T21:52:40;26.63;;;14.02;;
69034;SDS011;56091;55.756;37.412;2022-08-04T21:57:41;23.93;;;13.30;;
69034;SDS011;56091;55.756;37.412;2022-08-04T22:02:42;27.95;;;13.27;;
69034;SDS011;56091;55.756;37.412;2022-08-04T22:07:42;27.40;;;13.77;;
69034;SDS011;56091;55.756;37.412;2022-08-04T22:12:43;34.78;;;14.00;;
69034;SDS011;56091;55.756;37.412;2022-08-04T22:17:44;30.77;;;13.27;;
69034;SDS011;56091;55.756;37.412;2022-08-04T22:22:45;22.67;;;12.77;;
69034;SDS011;56091;55.756;37.412;2022-08-04T22:27:46;32.47;;;13.67;;
69034;SDS011;56091;55.756;37.412;2022-08-04T22:32:59;29.02;;;13.63;;
69034;SDS011;56091;55.756;37.412;2022-08-04T22:38:00;24.57;;;13.80;;
69034;SDS011;56091;55.756;37.412;2022-08-04T22:43:04;25.83;;;13.57;;
69034;SDS011;56091;55.756;37.412;2022-08-04T22:48:05;28.20;;;13.87;;
69034;SDS011;56091;55.756;37.412;2022-08-04T22:53:06;30.30;;;14.10;;
69034;SDS011;56091;55.756;37.412;2022-08-04T22:58:07;28.17;;;14.07;;
69034;SDS011;56091;55.756;37.412;2022-08-04T23:03:08;30.35;;;14.20;;
69034;SDS011;56091;55.756;37.412;2022-08-04T23:08:10;25.10;;;14.57;;
69034;SDS011;56091;55.756;37.412;2022-08-04T23:13:11;24.48;;;14.15;;
69034;SDS011;56091;55.756;37.412;2022-08-04T23:18:13;33.77;;;15.13;;
69034;SDS011;56091;55.756;37.412;2022-08-04T23:23:13;28.77;;;14.73;;
69034;SDS011;56091;55.756;37.412;2022-08-04T23:28:14;26.43;;;14.60;;
69034;SDS011;56091;55.756;37.412;2022-08-04T23:33:15;27.63;;;14.07;;
69034;SDS011;56091;55.756;37.412;2022-08-04T23:38:16;31.83;;;14.95;;
69034;SDS011;56091;55.756;37.412;2022-08-04T23:43:17;27.60;;;14.27;;
69034;SDS011;56091;55.756;37.412;2022-08-04T23:48:18;30.58;;;14.65;;
69034;SDS011;56091;55.756;37.412;2022-08-04T23:53:19;27.33;;;14.23;;
69034;SDS011;56091;55.756;37.412;2022-08-04T23:58:20;30.45;;;14.77;;
